Etusivu
METAR-TAF:

METAR-TAF

Lentoasemat :

Frankfurt am Mainin lentoasema

Frankfurt, Saksa

Leveyspiiri: 50-03N, Pituuspiiri: 008-36E, korkeus merenpinnasta: 111 m

Tämänhetkinen sää

Tämä raportti tehtiin 31 minuuttia sitten, kello 17.50 UTC
Tuuli 2 kn eri suunnista
Lämpötila 24°C
Kosteus 54%
Ilmanpaine 1019 hPa
Näkyvyys 10 km tai enemmän
ei pilviä alle 1500 m:ssä eikä cumulonimbus-pilviä

METAR: EDDF 151750Z VRB02KT CAVOK 24/14 Q1019 NOSIG

Aika: 20:21 (18:21 UTC)

Sääennuste

Tämä raportti tehtiin 1 tunti ja 21 minuuttia sitten, kello 17.00 UTC
Ennuste voimassa 15. päivästä klo 18 UTC - 16. päivään klo 24 UTC
Tuuli 3 kn idästä/koillisesta
Näkyvyys 10 km tai enemmän
ei pilviä alle 1500 m:ssä eikä cumulonimbus-pilviä
Tulossa
16. päivästä klo 09 UTC - 16. päivään klo 12 UTC
Tuuli 5 kn etelästä/lounaasta
Tulossa
16. päivästä klo 16 UTC - 16. päivään klo 19 UTC
Tuuli 3 kn eri suunnista

TAF: EDDF 151700Z 1518/1624 06003KT CAVOK BECMG 1609/1612 20005KT BECMG 1616/1619 VRB03KT

Säähavainnot ja -ennusteet yli 4000 lentoasemalta (METAR- ja TAF-raportit).

Käytössä olevat sääasemat on merkitty karttaan keltaisilla ja punaisilla pisteillä.

Aseta hiiri pisteen päälle nähdäksesi sääaseman nimen.

Klikkaa sitten nähdäksesi säähavainnot ja -ennusteet.

Kartan vaihtaminen: klikkaa mustalla rastilla varustettuja vihreitä pisteitä, niin voit zoomata sisään; viivalla varustettua vihreää pistettä, niin voit zoomata ulos tai vihreitä nuolia, niin pääset viereisille kartoille.


METAR-TAF: